Time;durP1;ratioP1;P1;durP2;ratioP2;P2;SDS_P1;SDS_P2;PMS_P1;PMS_P2;Temp;Humidity;BMP_temperature;BMP_pressure;BME280_temperature;BME280_humidity;BME280_pressure;Samples;Min_cycle;Max_cycle;Signal;HPM_P1;HPM_P2
2022/06/20 00:02:22;;;;;;;25.30;16.33;;;23.90;59.40;;;23.28;55.75;97088.47;5072060;28;20445;-79
2022/06/20 00:04:51;;;;;;;19.03;16.13;;;23.80;59.40;;;23.17;55.86;97082.41;5069287;28;20456;-76
2022/06/20 00:07:19;;;;;;;17.87;16.10;;;23.80;59.50;;;23.01;56.41;97080.09;5067511;28;20445;-78
2022/06/20 00:09:49;;;;;;;18.13;15.93;;;23.70;59.70;;;22.91;57.40;97085.91;5101698;28;21081;-77
2022/06/20 00:12:24;;;;;;;21.30;15.10;;;23.50;60.40;;;23.14;56.91;97086.63;5068709;28;20541;-78
2022/06/20 00:14:56;;;;;;;21.80;15.33;;;23.60;60.90;;;23.10;56.73;97076.56;5056087;28;20984;-79
2022/06/20 00:17:24;;;;;;;20.73;15.57;;;23.60;60.60;;;23.12;56.43;97066.81;5058478;28;21059;-79
2022/06/20 00:19:52;;;;;;;18.47;16.03;;;23.70;60.50;;;22.96;56.91;97060.97;5085850;28;20457;-77
2022/06/20 00:22:20;;;;;;;19.40;15.50;;;23.50;60.60;;;23.09;56.59;97069.44;5053472;28;20629;-78
2022/06/20 00:24:47;;;;;;;16.57;14.97;;;23.60;60.90;;;22.92;56.34;97060.00;5060435;28;20507;-79
2022/06/20 00:27:14;;;;;;;16.90;15.20;;;23.50;60.60;;;22.64;56.50;97017.00;5061455;28;20960;-79
2022/06/20 00:29:43;;;;;;;17.90;14.50;;;23.50;60.70;;;22.89;56.36;97069.72;5052546;28;20455;-77
2022/06/20 00:32:13;;;;;;;16.93;15.23;;;23.50;60.50;;;22.87;56.34;97068.41;5055536;28;20960;-77
2022/06/20 00:34:40;;;;;;;18.70;15.07;;;23.40;60.30;;;22.88;56.36;97070.84;5052610;28;21150;-77
2022/06/20 00:37:17;;;;;;;16.30;14.57;;;23.40;60.30;;;22.79;56.54;97067.25;5051814;28;20445;-78
2022/06/20 00:39:45;;;;;;;15.87;14.23;;;23.40;60.60;;;22.78;56.86;97071.13;5052578;28;20484;-77
2022/06/20 00:42:12;;;;;;;16.27;14.27;;;23.40;60.80;;;22.76;56.96;97068.72;5055159;28;20456;-77
2022/06/20 00:44:44;;;;;;;16.00;14.40;;;23.30;60.90;;;22.76;57.13;97067.88;5057310;28;20452;-78
2022/06/20 00:47:18;;;;;;;17.10;15.30;;;23.30;61.20;;;22.59;57.63;97069.44;5056559;28;20572;-78
2022/06/20 00:49:57;;;;;;;17.07;14.17;;;23.20;61.30;;;22.61;57.43;97071.88;5055713;28;20471;-77
2022/06/20 00:52:33;;;;;;;15.20;13.70;;;23.10;61.60;;;22.64;57.54;97072.03;5063895;28;20452;-76
2022/06/20 00:55:04;;;;;;;14.83;13.40;;;23.20;62.00;;;22.57;57.53;97065.38;5064967;28;20460;-78
2022/06/20 00:57:36;;;;;;;16.07;14.60;;;23.10;62.00;;;22.76;57.87;97063.19;5058913;28;20524;-77
2022/06/20 01:00:11;;;;;;;15.97;14.40;;;23.20;62.40;;;22.78;57.52;97062.88;5061340;28;20543;-77
2022/06/20 01:02:45;;;;;;;18.60;15.30;;;23.30;62.20;;;22.85;57.62;97065.97;5050326;28;20457;-76
2022/06/20 01:05:22;;;;;;;16.73;15.10;;;23.30;62.70;;;22.69;57.72;97067.53;5057181;28;20450;-77
2022/06/20 01:07:57;;;;;;;17.83;16.23;;;23.20;62.30;;;22.49;58.32;97064.22;5047682;28;20453;-78
2022/06/20 01:10:30;;;;;;;19.13;15.33;;;23.10;62.80;;;22.34;58.99;97068.97;5053334;28;21050;-77
2022/06/20 01:13:02;;;;;;;16.83;15.10;;;23.00;63.50;;;22.17;59.47;97068.88;5046167;28;20465;-78
2022/06/20 01:15:38;;;;;;;22.30;17.00;;;22.80;64.00;;;22.19;59.29;97069.38;5054828;28;20455;-79
2022/06/20 01:18:16;;;;;;;18.30;16.50;;;22.80;64.40;;;21.86;60.36;97075.16;5054674;28;20563;-78
2022/06/20 01:20:44;;;;;;;18.63;15.87;;;22.60;65.10;;;21.85;60.73;97076.28;5067646;28;20456;-78
2022/06/20 01:23:26;;;;;;;20.23;16.40;;;22.50;66.00;;;21.69;60.90;97059.38;5053666;28;20453;-78
2022/06/20 01:26:11;;;;;;;16.10;14.47;;;22.40;66.40;;;21.77;61.17;97080.59;5081325;28;20547;-78
2022/06/20 01:28:42;;;;;;;16.50;14.50;;;22.30;67.20;;;21.78;60.77;97085.78;5051516;28;20462;-78
2022/06/20 01:31:11;;;;;;;16.47;14.63;;;22.40;67.20;;;21.84;60.92;97082.91;5069984;28;20453;-79
2022/06/20 01:33:39;;;;;;;17.40;15.63;;;22.40;67.60;;;21.74;61.29;97094.97;5050091;28;20460;-77
2022/06/20 01:38:57;;;;;;;17.20;15.53;;;22.20;68.50;;;21.44;62.22;97098.06;5056748;28;20851;-78
2022/06/20 01:44:13;;;;;;;16.67;15.27;;;22.10;69.40;;;21.35;62.25;97088.94;5059518;28;20462;-77
2022/06/20 01:46:41;;;;;;;18.43;16.53;;;22.00;69.70;;;21.21;62.95;97084.28;5057965;28;20560;-78
2022/06/20 01:49:13;;;;;;;19.03;16.67;;;22.00;70.50;;;21.15;63.32;97099.22;5048498;28;21004;-78
2022/06/20 01:51:49;;;;;;;18.43;16.67;;;21.80;71.10;;;21.31;62.92;97087.94;5059617;28;20486;-77
2022/06/20 01:54:19;;;;;;;21.93;17.57;;;21.90;71.30;;;21.31;62.80;97090.69;5043814;28;20471;-78
2022/06/20 01:56:49;;;;;;;24.13;15.40;;;22.00;71.30;;;21.04;63.64;97084.91;5046943;28;20461;-78
2022/06/20 01:59:22;;;;;;;18.47;16.57;;;21.80;72.00;;;21.03;63.84;97085.25;5046516;28;20540;-78
2022/06/20 02:01:51;;;;;;;18.93;16.93;;;21.70;72.60;;;20.83;64.54;97101.00;5051822;28;20572;-78
2022/06/20 02:04:23;;;;;;;19.27;15.90;;;21.60;73.20;;;21.04;64.04;97095.09;5050021;28;20472;-78
2022/06/20 02:06:52;;;;;;;19.20;17.13;;;21.60;73.40;;;21.07;63.87;97094.47;5053173;28;20570;-77
2022/06/20 02:09:20;;;;;;;19.07;17.07;;;21.70;73.30;;;20.98;64.24;97091.66;5047878;28;20461;-77
2022/06/20 02:11:49;;;;;;;18.53;16.63;;;21.60;73.60;;;20.84;64.70;97091.63;5046693;28;20480;-78
2022/06/20 02:14:24;;;;;;;19.53;17.10;;;21.60;74.00;;;20.65;65.61;97100.75;5048105;28;20452;-78
2022/06/20 02:16:56;;;;;;;18.97;16.80;;;21.40;74.70;;;20.81;65.18;97103.22;5047725;28;20495;-78
2022/06/20 02:19:29;;;;;;;19.00;16.10;;;21.40;75.20;;;20.72;65.56;97099.56;5049385;28;21296;-77
2022/06/20 02:21:59;;;;;;;17.67;16.07;;;21.30;75.60;;;20.86;65.21;97100.41;5046616;28;20480;-79
2022/06/20 02:24:32;;;;;;;17.70;15.93;;;21.40;76.00;;;20.65;65.93;97106.25;5048006;28;20505;-78
2022/06/20 02:27:02;;;;;;;22.83;16.63;;;21.40;76.10;;;20.58;66.47;97105.84;5053489;28;20463;-78
2022/06/20 02:29:33;;;;;;;16.07;14.37;;;21.30;76.80;;;20.53;66.92;97109.50;5056506;28;20946;-78
2022/06/20 02:32:07;;;;;;;18.77;16.83;;;21.20;77.40;;;20.53;67.24;97109.50;5049628;28;20461;-78
2022/06/20 02:34:35;;;;;;;17.73;15.93;;;21.20;78.00;;;20.49;67.39;97104.91;5048127;28;20629;-78
2022/06/20 02:37:14;;;;;;;16.30;14.70;;;21.20;78.40;;;20.24;68.01;97085.03;5044809;28;20455;-76
2022/06/20 02:39:45;;;;;;;23.13;15.80;;;21.20;78.90;;;20.52;67.57;97107.03;5053242;28;20537;-76
2022/06/20 02:42:19;;;;;;;18.10;14.83;;;21.20;79.20;;;20.56;67.63;97107.25;5052054;28;20452;-78
2022/06/20 02:44:50;;;;;;;18.73;14.77;;;21.20;79.30;;;20.67;67.21;97109.50;5051527;28;20459;-77
2022/06/20 02:47:18;;;;;;;17.80;14.33;;;21.30;79.30;;;20.50;67.68;97098.31;5056593;28;20899;-77
2022/06/20 02:49:47;;;;;;;16.47;13.97;;;21.20;79.30;;;20.60;67.39;97092.63;5055627;28;20454;-76
2022/06/20 02:52:23;;;;;;;17.87;14.30;;;21.30;79.40;;;20.48;67.52;97084.09;5054768;28;20449;-76
2022/06/20 02:54:52;;;;;;;18.30;15.33;;;21.20;79.60;;;20.43;67.76;97082.25;5058413;28;20453;-76
2022/06/20 02:57:31;;;;;;;15.57;14.07;;;21.10;79.90;;;20.35;67.93;97053.59;5100116;28;20491;-75
2022/06/20 03:00:02;;;;;;;15.57;14.03;;;21.10;80.30;;;20.34;68.18;97073.91;5072567;28;20479;-76
2022/06/20 03:02:35;;;;;;;17.83;15.30;;;21.10;80.50;;;20.48;67.76;97067.63;5067697;28;20458;-76
2022/06/20 03:05:03;;;;;;;19.83;15.50;;;21.10;80.30;;;20.48;67.67;97065.69;5057083;28;20440;-80
2022/06/20 03:07:37;;;;;;;18.00;15.30;;;21.20;80.50;;;20.47;67.68;97060.50;5058967;28;20470;-77
2022/06/20 03:10:17;;;;;;;19.90;14.93;;;21.20;80.30;;;20.41;68.08;97068.03;5052751;28;21292;-77
2022/06/20 03:12:45;;;;;;;20.40;15.63;;;21.10;80.80;;;20.39;68.32;97056.53;5060279;28;20465;-77
2022/06/20 03:15:15;;;;;;;16.20;14.60;;;21.10;81.00;;;20.50;67.86;97043.44;5048927;28;20451;-77
2022/06/20 03:17:45;;;;;;;18.43;15.57;;;21.10;81.00;;;20.47;67.55;97046.78;5059216;28;20468;-76
2022/06/20 03:20:17;;;;;;;17.17;14.30;;;21.10;80.70;;;20.57;67.27;97038.38;5067767;28;20477;-76
2022/06/20 03:22:51;;;;;;;17.97;14.77;;;21.20;80.80;;;20.62;66.98;97038.25;5058390;28;20544;-77
2022/06/20 03:25:19;;;;;;;16.50;14.70;;;21.20;80.20;;;21.05;65.05;97030.81;5087546;28;20451;-77
2022/06/20 03:27:51;;;;;;;15.77;13.63;;;21.50;79.20;;;21.48;63.83;97033.16;5057000;28;20468;-77
2022/06/20 03:30:27;;;;;;;16.20;14.60;;;21.80;77.80;;;21.70;62.88;97031.53;5059852;28;20460;-77
2022/06/20 03:32:55;;;;;;;18.57;14.27;;;22.20;76.30;;;21.78;62.68;97025.31;5064399;28;20450;-79
2022/06/20 03:35:23;;;;;;;17.53;13.90;;;22.30;75.80;;;21.84;62.20;97023.25;5062865;28;20584;-77
2022/06/20 03:37:51;;;;;;;15.90;14.50;;;22.50;74.80;;;22.04;60.88;97010.88;5054768;28;20462;-77
2022/06/20 03:40:19;;;;;;;17.87;15.10;;;22.60;73.80;;;22.30;60.46;97026.72;5056345;28;20815;-78
2022/06/20 03:42:48;;;;;;;15.93;14.23;;;22.80;72.90;;;22.43;59.96;97024.19;5060266;28;20549;-77
2022/06/20 03:45:16;;;;;;;17.80;14.60;;;22.90;72.40;;;22.57;59.39;97030.41;5082371;28;20487;-77
2022/06/20 03:47:51;;;;;;;16.03;14.50;;;23.10;71.70;;;22.32;59.40;96998.91;5054979;28;20444;-78
2022/06/20 03:50:26;;;;;;;16.87;15.17;;;23.20;71.10;;;22.75;58.96;97038.72;5062649;28;20458;-77
2022/06/20 03:53:01;;;;;;;16.37;14.60;;;23.30;70.60;;;22.73;58.86;97038.25;5056386;28;20623;-77
2022/06/20 03:55:33;;;;;;;16.23;14.53;;;23.30;70.10;;;23.03;57.96;97055.00;5055403;28;20490;-78
2022/06/20 03:58:09;;;;;;;16.77;14.97;;;23.50;69.70;;;22.50;59.31;97054.81;5055277;28;20538;-78
2022/06/20 04:00:48;;;;;;;17.97;15.20;;;23.30;69.40;;;22.99;58.11;97060.34;5058231;28;20491;-77
2022/06/20 04:03:33;;;;;;;16.53;14.93;;;23.50;69.60;;;22.60;58.85;97076.56;5051466;28;20552;-77
2022/06/20 04:06:09;;;;;;;20.20;14.20;;;23.40;69.10;;;22.24;60.36;97091.25;5049122;28;20556;-78
2022/06/20 04:11:42;;;;;;;16.20;14.70;;;23.10;70.20;;;22.56;59.51;97099.53;4997931;28;20463;-77
2022/06/20 04:14:15;;;;;;;18.17;14.33;;;23.00;70.40;;;22.55;59.12;97087.72;5042151;28;20482;-79
2022/06/20 04:16:46;;;;;;;15.87;14.57;;;23.10;69.90;;;22.58;59.17;97095.34;5059810;28;20480;-77
2022/06/20 04:19:20;;;;;;;19.47;15.23;;;23.10;69.80;;;22.51;59.36;97108.72;5048232;28;20479;-79
2022/06/20 04:21:53;;;;;;;18.20;15.50;;;23.10;69.70;;;22.50;59.69;97109.84;5048139;28;20480;-77
2022/06/20 04:24:30;;;;;;;17.70;14.40;;;23.10;69.80;;;22.66;59.19;97128.72;5053763;28;21018;-78
2022/06/20 04:27:07;;;;;;;16.03;14.63;;;23.20;70.00;;;22.63;59.02;97128.22;5051533;28;20991;-77
2022/06/20 04:29:40;;;;;;;16.00;14.50;;;23.30;69.50;;;22.82;58.87;97140.94;5058996;28;21234;-78
2022/06/20 04:32:17;;;;;;;17.60;15.90;;;23.40;69.70;;;22.46;60.43;97152.88;5051203;28;20450;-78
2022/06/20 04:34:52;;;;;;;18.50;16.70;;;23.20;70.50;;;22.20;61.81;97179.09;5058278;28;21101;-78
2022/06/20 04:37:24;;;;;;;20.30;18.30;;;23.00;71.60;;;22.03;62.42;97185.25;5055299;28;20586;-78
2022/06/20 04:39:58;;;;;;;19.03;17.10;;;22.70;72.60;;;21.96;62.66;97184.06;5056754;28;20533;-80
2022/06/20 04:42:37;;;;;;;17.77;16.07;;;22.70;73.10;;;22.03;62.15;97190.75;5056933;28;20468;-79
2022/06/20 04:45:14;;;;;;;18.83;16.70;;;22.70;72.90;;;21.81;62.83;97171.50;5085541;28;20461;-79
2022/06/20 04:47:49;;;;;;;17.53;15.50;;;22.60;73.60;;;21.84;63.32;97199.19;5033498;28;20458;-80
2022/06/20 04:50:21;;;;;;;15.77;14.33;;;22.50;74.50;;;21.76;63.63;97198.00;5084908;28;20465;-80
2022/06/20 04:52:51;;;;;;;16.70;14.77;;;22.40;74.80;;;21.85;63.45;97200.81;5053525;28;20979;-79
2022/06/20 04:55:23;;;;;;;17.30;15.57;;;22.50;75.30;;;22.01;63.52;97215.00;5052241;28;20463;-80
2022/06/20 04:57:51;;;;;;;21.60;15.67;;;22.60;75.20;;;22.30;62.97;97204.75;5053124;28;20465;-78
2022/06/20 05:00:22;;;;;;;21.17;15.63;;;22.90;75.50;;;22.04;64.04;97219.88;5055011;28;20634;-80
2022/06/20 05:02:52;;;;;;;16.60;15.03;;;22.80;75.30;;;21.74;64.81;97213.94;5055033;28;20461;-81
2022/06/20 05:05:26;;;;;;;15.33;13.73;;;22.50;76.50;;;21.91;64.52;97226.22;5065839;28;20456;-78
2022/06/20 05:07:54;;;;;;;17.83;14.40;;;22.60;76.60;;;21.91;64.88;97223.47;5056106;28;20457;-75
2022/06/20 05:10:29;;;;;;;14.30;12.60;;;22.60;77.10;;;21.69;65.04;97205.81;5053261;28;20904;-81
2022/06/20 05:13:00;;;;;;;14.93;11.70;;;22.40;77.20;;;21.64;65.42;97192.19;5049036;28;20483;-77
2022/06/20 05:15:36;;;;;;;15.03;11.73;;;22.30;77.70;;;21.73;64.87;97187.59;5052742;28;20459;-80
2022/06/20 05:18:17;;;;;;;11.97;10.57;;;22.40;77.70;;;21.54;65.02;97173.16;5051597;28;20534;-79
2022/06/20 05:20:47;;;;;;;15.80;12.17;;;22.30;77.20;;;21.40;65.81;97179.47;5055370;28;20476;-80
2022/06/20 05:23:23;;;;;;;12.50;11.03;;;22.20;77.90;;;21.19;66.29;97190.91;5050792;28;20464;-78
2022/06/20 05:25:51;;;;;;;15.17;11.10;;;22.00;78.20;;;21.04;66.39;97188.44;5049834;28;20454;-83
2022/06/20 05:28:22;;;;;;;13.50;11.13;;;21.90;78.60;;;21.03;66.69;97197.81;5079806;28;20486;-82
2022/06/20 05:30:49;;;;;;;17.10;11.37;;;21.80;79.30;;;20.92;67.03;97217.22;5053516;28;20468;-80
2022/06/20 05:33:25;;;;;;;14.27;11.53;;;21.70;79.70;;;20.88;67.09;97249.13;5067286;28;20462;-77
2022/06/20 05:35:58;;;;;;;13.57;10.40;;;21.70;79.90;;;20.95;66.89;97263.28;5070689;28;20475;-79
2022/06/20 05:38:33;;;;;;;12.43;10.70;;;21.70;79.80;;;21.20;66.51;97269.41;5059957;28;20460;-74
2022/06/20 05:41:04;;;;;;;18.20;11.83;;;21.80;79.70;;;21.46;65.56;97263.44;5046077;28;22565;-74
2022/06/20 05:43:32;;;;;;;15.53;10.83;;;22.00;78.90;;;21.54;65.31;97261.91;5048006;28;20510;-74
2022/06/20 05:46:03;;;;;;;14.33;10.90;;;22.10;78.50;;;22.49;62.25;97240.34;5048602;28;20527;-74
2022/06/20 05:48:36;;;;;;;15.17;10.60;;;22.90;76.60;;;22.36;62.39;97247.50;5045978;28;20467;-72
2022/06/20 05:51:08;;;;;;;12.40;11.20;;;23.20;74.30;;;20.77;69.15;97231.97;5051671;28;21157;-73
2022/06/20 05:53:40;;;;;;;15.17;11.47;;;22.00;79.80;;;20.34;72.44;97227.50;5051364;28;20492;-74
2022/06/20 05:56:18;;;;;;;12.33;11.03;;;21.40;84.00;;;20.00;73.78;97201.16;5046892;28;20539;-73
2022/06/20 05:58:48;;;;;;;12.90;11.70;;;21.00;86.20;;;19.84;74.87;97186.81;5046775;28;20461;-72
2022/06/20 06:01:18;;;;;;;13.50;12.20;;;20.80;88.40;;;19.82;75.40;97205.47;5045989;28;20539;-72
2022/06/20 06:03:59;;;;;;;13.90;12.27;;;20.70;90.00;;;19.89;75.15;97205.13;5046451;28;20520;-72
2022/06/20 06:06:34;;;;;;;16.47;12.73;;;20.70;90.00;;;20.10;73.83;97255.84;5053337;28;20515;-72
2022/06/20 06:09:09;;;;;;;14.90;12.97;;;20.80;89.70;;;20.23;73.30;97311.03;5047453;28;21399;-73
2022/06/20 06:11:44;;;;;;;20.73;11.93;;;20.90;89.10;;;20.43;72.37;97339.28;5046184;28;20460;-72
2022/06/20 06:14:20;;;;;;;16.97;11.70;;;21.10;87.60;;;20.71;71.28;97328.44;5047123;28;20493;-72
2022/06/20 06:16:54;;;;;;;13.27;11.93;;;21.40;87.10;;;21.04;69.31;97321.03;5053825;28;20461;-74
2022/06/20 06:19:35;;;;;;;13.10;11.73;;;21.60;84.70;;;21.16;68.70;97320.59;5047480;28;20507;-73
2022/06/20 06:22:11;;;;;;;19.40;12.43;;;21.70;83.80;;;21.15;69.66;97332.66;5043233;28;20855;-73
2022/06/20 06:24:42;;;;;;;15.33;12.27;;;21.80;84.70;;;21.34;68.86;97343.59;5048364;28;20455;-73
2022/06/20 06:27:18;;;;;;;16.20;10.90;;;22.00;84.00;;;21.76;67.62;97349.19;5063244;28;20456;-72
2022/06/20 06:29:51;;;;;;;17.77;10.50;;;22.30;83.00;;;22.04;65.53;97346.38;5050789;28;20917;-72
2022/06/20 06:32:24;;;;;;;12.60;10.83;;;22.60;80.90;;;21.54;67.46;97360.00;5047169;28;20464;-73
2022/06/20 06:34:59;;;;;;;13.20;11.40;;;22.40;81.50;;;21.54;67.47;97368.25;5047239;28;20461;-72
2022/06/20 06:37:35;;;;;;;13.40;11.17;;;22.30;82.00;;;21.42;69.12;97371.50;5046727;28;20463;-73
2022/06/20 06:40:12;;;;;;;14.80;12.17;;;22.20;83.70;;;20.97;70.86;97369.22;5047714;28;20546;-74
2022/06/20 06:42:41;;;;;;;12.87;11.30;;;21.90;85.20;;;20.71;72.36;97373.16;5054255;28;20475;-72
2022/06/20 06:45:17;;;;;;;15.67;12.20;;;21.60;87.10;;;20.22;75.37;97372.47;5050645;28;20465;-72
2022/06/20 06:47:50;;;;;;;13.77;12.33;;;21.20;89.70;;;19.93;78.37;97411.75;5050509;28;20821;-73
2022/06/20 06:50:30;;;;;;;13.23;12.03;;;20.90;92.10;;;19.80;78.30;97400.38;5048498;28;20457;-72
2022/06/20 06:53:05;;;;;;;14.93;13.30;;;20.60;92.60;;;19.80;80.69;97399.53;5047746;28;20456;-72
2022/06/20 06:55:36;;;;;;;14.17;12.63;;;20.60;94.30;;;19.59;80.88;97366.06;5047953;28;20500;-71
2022/06/20 06:58:14;;;;;;;15.47;13.40;;;20.50;94.40;;;19.59;80.97;97366.06;5049481;28;20539;-73
2022/06/20 07:00:47;;;;;;;18.53;14.73;;;20.40;94.40;;;19.36;82.67;97341.13;5053172;28;20518;-72
2022/06/20 07:03:18;;;;;;;19.77;13.97;;;20.30;95.60;;;18.99;86.47;97250.31;5046851;28;20449;-72
2022/06/20 07:05:54;;;;;;;15.77;13.77;;;20.10;99.10;;;18.81;86.46;97276.44;5054885;28;20499;-72
2022/06/20 07:08:25;;;;;;;16.23;14.57;;;19.70;98.30;;;18.51;89.26;97257.28;5058789;28;20459;-72
2022/06/20 07:10:58;;;;;;;20.30;15.20;;;19.50;99.90;;;18.58;88.85;97234.25;5053111;28;20468;-72
2022/06/20 07:13:36;;;;;;;17.40;14.30;;;19.40;99.90;;;18.62;89.94;97229.81;5056487;28;20555;-72
2022/06/20 07:16:14;;;;;;;15.73;13.67;;;19.40;99.90;;;18.73;89.71;97223.16;5044373;28;20544;-73
2022/06/20 07:18:46;;;;;;;14.83;13.17;;;19.50;99.90;;;18.85;86.44;97230.97;5049394;28;20479;-72
2022/06/20 07:21:17;;;;;;;15.20;13.40;;;19.50;99.50;;;19.04;84.68;97250.25;5048467;28;20854;-72
2022/06/20 07:23:49;;;;;;;17.50;13.93;;;19.70;97.80;;;19.32;85.04;97279.78;5071416;28;20461;-72
2022/06/20 07:26:21;;;;;;;15.30;13.67;;;19.90;98.60;;;19.60;84.71;97304.69;5050545;28;20460;-73
2022/06/20 07:28:54;;;;;;;14.53;11.80;;;20.20;98.70;;;19.65;83.82;97285.47;5056767;28;20458;-73
2022/06/20 07:31:26;;;;;;;17.47;13.53;;;20.30;97.10;;;20.01;82.07;97295.97;5055415;28;20466;-73
2022/06/20 07:33:58;;;;;;;14.27;12.87;;;20.60;96.50;;;20.37;80.72;97330.31;5050760;28;20460;-72
2022/06/20 07:36:28;;;;;;;15.47;13.87;;;20.90;95.00;;;20.63;79.31;97335.44;5057339;28;20499;-73
2022/06/20 07:39:03;;;;;;;14.57;13.13;;;21.20;94.00;;;20.82;77.63;97307.97;5053915;28;20462;-73
2022/06/20 07:41:39;;;;;;;14.00;12.70;;;21.50;92.40;;;20.67;77.82;97300.78;5051135;28;20488;-73
2022/06/20 07:44:14;;;;;;;14.70;13.20;;;21.50;92.10;;;20.65;78.30;97268.13;5054298;28;20442;-72
2022/06/20 07:46:50;;;;;;;16.13;14.43;;;21.50;92.50;;;20.55;78.91;97227.19;5057896;28;20492;-74
2022/06/20 07:49:24;;;;;;;15.60;13.50;;;21.40;92.70;;;20.76;78.23;97215.84;5055172;28;20463;-74
2022/06/20 07:51:56;;;;;;;14.10;12.67;;;21.50;92.60;;;21.00;76.63;97220.34;5085335;28;20455;-74
2022/06/20 07:54:30;;;;;;;16.33;13.30;;;21.70;91.70;;;21.67;72.34;97278.72;5050339;28;20474;-75
2022/06/20 07:57:05;;;;;;;13.67;12.33;;;22.10;90.30;;;21.84;71.42;97270.66;5053991;28;20547;-74
2022/06/20 07:59:41;;;;;;;13.73;12.30;;;22.40;88.00;;;21.69;71.94;97232.50;5055473;28;20454;-74
2022/06/20 08:02:16;;;;;;;15.10;12.73;;;22.40;87.40;;;22.05;70.86;97245.47;5050857;28;21015;-74
2022/06/20 08:04:46;;;;;;;15.03;11.57;;;22.60;86.90;;;22.35;69.57;97282.44;5050714;28;20506;-73
2022/06/20 08:07:20;;;;;;;13.30;11.33;;;22.90;86.00;;;22.45;67.90;97305.34;5054122;28;20493;-73
2022/06/20 08:09:57;;;;;;;15.83;12.87;;;23.10;84.60;;;22.81;68.35;97354.06;5048160;28;20463;-74
2022/06/20 08:12:31;;;;;;;12.23;11.03;;;23.40;85.10;;;22.67;67.83;97389.91;5051413;28;20544;-75
2022/06/20 08:15:03;;;;;;;12.27;11.07;;;23.30;84.10;;;22.56;68.28;97416.03;5053606;28;20475;-75
2022/06/20 08:17:32;;;;;;;12.93;10.40;;;23.20;84.50;;;22.12;68.45;97399.84;5058256;28;21018;-74
2022/06/20 08:20:01;;;;;;;12.37;10.00;;;22.90;83.70;;;21.99;68.34;97400.66;5049922;28;20472;-75
2022/06/20 08:22:35;;;;;;;12.77;11.07;;;22.70;83.60;;;22.14;69.11;97389.41;5068173;28;20829;-74
2022/06/20 08:25:11;;;;;;;13.10;10.90;;;22.80;84.80;;;21.86;69.98;97363.81;5050701;28;20553;-75
2022/06/20 08:27:43;;;;;;;12.67;10.87;;;22.60;84.90;;;22.13;71.38;97343.72;5058427;28;20481;-74
2022/06/20 08:30:15;;;;;;;14.80;10.90;;;22.70;86.90;;;22.36;68.32;97347.34;5065372;28;20465;-73
2022/06/20 08:32:55;;;;;;;14.53;11.07;;;22.80;85.20;;;22.43;65.95;97348.88;5056504;28;20445;-74
2022/06/20 08:35:31;;;;;;;11.27;10.10;;;23.00;82.70;;;22.13;67.74;97368.47;5047488;28;20566;-75
2022/06/20 08:38:07;;;;;;;13.23;10.40;;;22.80;83.30;;;22.14;68.34;97399.56;5054680;28;20476;-74
2022/06/20 08:41:26;;;;;;;10.63;9.63;;;22.70;83.80;;;22.33;67.56;97391.19;5052082;28;20468;-74
2022/06/20 08:44:50;;;;;;;11.97;10.77;;;23.00;83.40;;;22.63;66.94;97386.16;5049525;28;20491;-73
2022/06/20 08:48:09;;;;;;;13.13;11.53;;;23.10;83.70;;;23.19;64.66;97363.88;5052561;28;20448;-75
2022/06/20 08:51:33;;;;;;;12.20;10.80;;;23.50;82.80;;;23.96;62.72;97350.00;5052943;28;20527;-75
2022/06/20 08:54:31;;;;;;;12.93;10.67;;;24.20;81.30;;;24.05;61.14;97348.13;5043714;28;20455;-75
2022/06/20 08:57:07;;;;;;;14.37;11.63;;;24.60;79.00;;;23.47;62.33;97353.56;5051905;28;20464;-74
2022/06/20 09:00:03;;;;;;;15.03;11.30;;;24.20;78.90;;;23.50;62.65;97349.34;5054431;28;20449;-74
2022/06/20 09:03:13;;;;;;;13.47;10.60;;;24.00;79.00;;;23.61;63.11;97349.91;5051226;28;20835;-73
2022/06/20 09:06:35;;;;;;;13.40;10.53;;;24.10;79.20;;;23.58;62.14;97356.03;5049257;28;20476;-74
2022/06/20 09:09:33;;;;;;;12.57;11.37;;;24.40;78.00;;;23.40;62.67;97347.66;5013009;28;20840;-77
2022/06/20 09:12:31;;;;;;;12.50;10.70;;;24.10;78.70;;;23.52;62.67;97340.75;5050183;28;20595;-74
2022/06/20 09:15:32;;;;;;;13.23;10.97;;;24.10;78.70;;;23.93;61.66;97369.97;5051412;28;20522;-75
2022/06/20 09:18:06;;;;;;;15.73;10.83;;;24.50;78.20;;;24.04;60.38;97374.09;5047968;28;20449;-74
2022/06/20 09:20:40;;;;;;;10.80;9.67;;;24.70;77.10;;;23.67;59.54;97392.72;5050329;28;20642;-73
2022/06/20 09:23:21;;;;;;;12.80;9.43;;;24.50;75.30;;;23.44;61.13;97397.47;5047019;28;20464;-73
2022/06/20 09:25:57;;;;;;;9.50;8.50;;;24.20;76.30;;;23.39;59.29;97392.91;5045261;28;20974;-77
2022/06/20 09:28:57;;;;;;;9.83;8.70;;;24.10;74.60;;;23.53;58.92;97383.72;5053676;28;20457;-77
2022/06/20 09:32:15;;;;;;;9.30;8.43;;;24.20;74.00;;;23.62;58.23;97379.88;5045143;28;20461;-77
2022/06/20 09:35:26;;;;;;;11.33;8.93;;;24.20;73.70;;;24.07;56.91;97382.88;5034291;28;20460;-78
2022/06/20 09:38:36;;;;;;;11.33;9.07;;;24.60;72.80;;;24.16;56.67;97386.44;5046692;28;20473;-77
2022/06/20 09:41:17;;;;;;;8.90;7.70;;;24.80;72.30;;;24.04;56.18;97374.09;5048426;28;20479;-80
2022/06/20 09:44:03;;;;;;;12.30;8.70;;;24.60;70.80;;;24.11;56.21;97370.03;5076505;28;21398;-76
2022/06/20 09:46:47;;;;;;;8.83;7.77;;;24.70;70.90;;;24.62;55.16;97370.44;5047624;28;20501;-76
2022/06/20 09:49:26;;;;;;;10.03;7.83;;;25.00;70.80;;;24.79;53.71;97364.13;5046514;28;20854;-77
2022/06/20 09:52:04;;;;;;;11.70;8.07;;;25.30;69.10;;;24.60;53.93;97362.47;5048750;28;20479;-78
2022/06/20 09:54:41;;;;;;;15.70;7.70;;;25.30;68.20;;;24.72;53.77;97355.50;5060725;28;20460;-76
2022/06/20 09:57:21;;;;;;;10.40;8.80;;;25.30;68.30;;;24.82;53.69;97337.81;5064514;28;20464;-76
2022/06/20 09:59:57;;;;;;;8.33;7.30;;;25.40;68.10;;;25.06;52.78;97345.59;5068413;28;20465;-76
2022/06/20 10:02:36;;;;;;;8.57;6.90;;;25.60;67.50;;;25.29;52.17;97337.09;5055849;28;20549;-75
2022/06/20 10:05:17;;;;;;;11.97;7.67;;;25.80;67.00;;;25.26;51.34;97340.53;5048041;28;20472;-78
2022/06/20 10:07:53;;;;;;;12.00;7.53;;;25.90;65.50;;;25.27;51.29;97336.63;5054938;28;20457;-78
2022/06/20 10:10:30;;;;;;;10.47;8.30;;;25.80;65.40;;;25.22;51.64;97350.59;5045072;28;20455;-76
2022/06/20 10:13:08;;;;;;;9.60;7.80;;;25.80;65.20;;;25.22;51.38;97343.13;5045303;28;20474;-77
2022/06/20 10:15:46;;;;;;;10.33;8.00;;;25.80;65.30;;;25.31;51.40;97337.59;5050089;28;21062;-77
2022/06/20 10:18:29;;;;;;;10.93;8.30;;;25.90;65.00;;;25.57;50.41;97325.66;5046426;28;21016;-80
2022/06/20 10:21:06;;;;;;;8.53;7.70;;;26.10;64.70;;;25.86;50.54;97340.66;5052339;28;20476;-73
2022/06/20 10:23:58;;;;;;;11.60;8.40;;;26.30;64.80;;;26.12;49.59;97345.22;5047575;28;21042;-74
2022/06/20 10:26:49;;;;;;;9.77;7.70;;;26.60;64.00;;;26.30;49.01;97343.19;5045778;28;20469;-74
2022/06/20 10:29:23;;;;;;;12.23;8.43;;;26.70;63.00;;;26.49;48.24;97339.97;5046385;28;20464;-74
2022/06/20 10:32:10;;;;;;;10.70;7.43;;;27.00;62.40;;;26.66;48.15;97352.88;5051829;28;20456;-74
2022/06/20 10:34:43;;;;;;;9.43;8.20;;;27.20;62.20;;;26.72;47.33;97350.69;5053072;28;20494;-74
2022/06/20 10:37:33;;;;;;;9.20;7.40;;;27.30;61.00;;;27.00;46.64;97352.94;5066186;28;20469;-74
2022/06/20 10:40:08;;;;;;;10.73;7.60;;;27.60;60.60;;;27.35;46.36;97360.91;5050949;28;20506;-74
2022/06/20 10:42:48;;;;;;;10.57;8.47;;;27.70;60.60;;;27.80;45.36;97375.09;5053106;28;20487;-75
2022/06/20 10:45:34;;;;;;;9.03;7.47;;;28.10;60.00;;;28.03;44.07;97371.88;5047300;28;20453;-74
2022/06/20 10:48:40;;;;;;;12.17;7.57;;;28.50;58.80;;;27.28;45.11;97319.88;5047343;28;20448;-74
2022/06/20 10:51:19;;;;;;;10.10;7.60;;;28.40;58.60;;;28.04;43.79;97373.50;5052047;28;20448;-73
2022/06/20 10:54:01;;;;;;;8.60;7.57;;;28.50;58.10;;;28.32;43.24;97368.06;5053246;28;21006;-73